createdAt,value
2018-05-01T00:01:24.998Z,13.40
2018-05-01T00:03:52.563Z,13.50
2018-05-01T00:06:20.058Z,13.50
2018-05-01T00:08:47.575Z,13.60
2018-05-01T00:11:15.110Z,13.70
2018-05-01T00:13:42.788Z,13.90
2018-05-01T00:16:10.297Z,13.90
2018-05-01T00:18:37.837Z,14.00
2018-05-01T00:21:05.433Z,14.10
2018-05-01T00:23:32.947Z,14.20
2018-05-01T00:26:02.744Z,14.20
2018-05-01T00:28:30.251Z,14.10
2018-05-01T00:30:57.838Z,14.10
2018-05-01T00:33:25.327Z,14.00
2018-05-01T00:35:52.890Z,13.90
2018-05-01T00:38:20.413Z,13.70
2018-05-01T00:40:47.972Z,13.60
2018-05-01T00:43:15.505Z,13.60
2018-05-01T00:45:43.097Z,13.50
2018-05-01T00:48:11.394Z,13.40
2018-05-01T00:50:39.063Z,13.40
2018-05-01T00:53:06.567Z,13.30
2018-05-01T00:55:34.063Z,13.20
2018-05-01T00:58:01.644Z,13.20
2018-05-01T01:00:29.207Z,13.20
2018-05-01T01:02:56.843Z,13.20
2018-05-01T01:05:24.367Z,13.30
2018-05-01T01:07:52.630Z,13.30
2018-05-01T01:10:20.163Z,13.40
2018-05-01T01:12:47.683Z,13.40
2018-05-01T01:15:15.957Z,13.40
2018-05-01T01:17:43.512Z,13.50
2018-05-01T01:20:11.029Z,13.50
2018-05-01T01:22:39.319Z,13.50
2018-05-01T01:25:06.973Z,13.50
2018-05-01T01:27:34.491Z,13.50
2018-05-01T01:30:02.004Z,13.60
2018-05-01T01:32:29.503Z,13.60
2018-05-01T01:34:57.465Z,13.60
2018-05-01T01:37:24.497Z,13.60
2018-05-01T01:39:51.697Z,13.60
2018-05-01T01:42:18.719Z,13.60
2018-05-01T01:44:45.782Z,13.60
2018-05-01T01:47:12.908Z,13.70
2018-05-01T01:49:39.964Z,13.70
2018-05-01T01:52:07.198Z,13.80
2018-05-01T01:54:34.264Z,13.80
2018-05-01T01:57:01.328Z,13.80
2018-05-01T01:59:28.360Z,13.80
2018-05-01T02:01:55.424Z,13.90
2018-05-01T02:04:22.528Z,13.90
2018-05-01T02:06:50.312Z,13.90
2018-05-01T02:09:17.364Z,13.90
2018-05-01T02:11:44.374Z,14.00
2018-05-01T02:14:13.555Z,14.00
2018-05-01T02:16:40.574Z,14.10
2018-05-01T02:19:07.638Z,14.10
2018-05-01T02:21:34.672Z,14.10
2018-05-01T02:24:01.702Z,14.00
2018-05-01T02:26:28.862Z,14.00
2018-05-01T02:28:56.014Z,14.00
2018-05-01T02:31:23.022Z,13.90
2018-05-01T02:33:50.059Z,13.90
2018-05-01T02:36:17.127Z,13.80
2018-05-01T02:38:44.240Z,13.80
2018-05-01T02:41:12.050Z,13.80
2018-05-01T02:43:39.137Z,13.80
2018-05-01T02:46:06.225Z,13.80
2018-05-01T02:48:33.754Z,13.80
2018-05-01T02:51:00.802Z,13.80
2018-05-01T02:53:27.822Z,13.80
2018-05-01T02:55:54.841Z,13.80
2018-05-01T02:58:21.847Z,13.80
2018-05-01T03:00:48.897Z,13.80
2018-05-01T03:03:15.971Z,13.80
2018-05-01T03:05:43.007Z,13.80
2018-05-01T03:08:10.069Z,13.80
2018-05-01T03:10:37.092Z,13.80
2018-05-01T03:13:04.131Z,13.80
2018-05-01T03:15:31.181Z,13.70
2018-05-01T03:17:58.436Z,13.70
2018-05-01T03:20:25.512Z,13.60
2018-05-01T03:22:52.525Z,13.60
2018-05-01T03:25:20.595Z,13.60
2018-05-01T03:27:47.577Z,13.60
2018-05-01T03:30:15.364Z,13.60
2018-05-01T03:32:42.384Z,13.70
2018-05-01T03:35:09.398Z,13.70
2018-05-01T03:37:36.601Z,13.70
2018-05-01T03:40:04.380Z,13.70
2018-05-01T03:42:31.433Z,13.70
2018-05-01T03:44:58.516Z,13.80
2018-05-01T03:47:27.044Z,13.80
2018-05-01T03:49:54.103Z,13.80
2018-05-01T03:52:21.566Z,13.90
2018-05-01T03:54:48.523Z,13.90
2018-05-01T03:57:15.529Z,13.90
2018-05-01T03:59:42.614Z,13.90
2018-05-01T04:02:10.462Z,13.90
2018-05-01T04:04:37.445Z,13.90
2018-05-01T04:07:04.511Z,13.90
2018-05-01T04:09:31.619Z,13.90
2018-05-01T04:11:58.660Z,13.80
2018-05-01T04:14:26.793Z,13.90
2018-05-01T04:16:53.795Z,13.90
2018-05-01T04:19:20.835Z,14.00
2018-05-01T04:21:47.905Z,14.10
2018-05-01T04:24:15.712Z,14.20
2018-05-01T04:26:43.495Z,14.30
2018-05-01T04:29:10.749Z,14.30
2018-05-01T04:31:37.841Z,14.40
2018-05-01T04:34:04.839Z,14.60
2018-05-01T04:36:31.858Z,14.80
2018-05-01T04:38:58.885Z,14.80
2018-05-01T04:41:25.970Z,14.90
2018-05-01T04:43:55.319Z,15.00
2018-05-01T04:46:22.427Z,14.90
2018-05-01T04:48:49.461Z,15.00
2018-05-01T04:51:16.517Z,15.10
2018-05-01T04:53:44.316Z,15.30
2018-05-01T04:56:11.627Z,15.20
2018-05-01T04:58:38.688Z,15.30
2018-05-01T05:01:05.735Z,15.40
2018-05-01T05:03:33.589Z,15.50
2018-05-01T05:06:00.839Z,15.50
2018-05-01T05:08:29.074Z,15.60
2018-05-01T05:10:56.178Z,15.60
2018-05-01T05:13:23.562Z,15.60
2018-05-01T05:15:50.586Z,15.60
2018-05-01T05:18:17.680Z,15.60
2018-05-01T05:20:44.729Z,15.50
2018-05-01T05:23:11.877Z,15.40
2018-05-01T05:25:38.891Z,15.50
2018-05-01T05:28:05.951Z,15.50
2018-05-01T05:30:33.009Z,15.70
2018-05-01T05:33:00.039Z,15.90
2018-05-01T05:35:27.067Z,16.10
2018-05-01T05:37:54.837Z,17.50
2018-05-01T05:40:22.630Z,18.00
2018-05-01T05:42:49.683Z,18.00
2018-05-01T05:45:16.738Z,21.00
2018-05-01T05:47:43.775Z,22.60
2018-05-01T05:50:10.788Z,24.20
2018-05-01T05:52:37.805Z,26.80
2018-05-01T05:55:04.922Z,29.60
2018-05-01T05:57:32.158Z,31.70
2018-05-01T05:59:59.358Z,31.90
2018-05-01T06:02:26.451Z,32.40
2018-05-01T06:04:53.516Z,32.40
2018-05-01T06:07:20.578Z,32.30
2018-05-01T06:09:47.719Z,32.40
2018-05-01T06:12:14.802Z,34.10
2018-05-01T06:14:41.888Z,34.60
2018-05-01T06:17:09.020Z,35.40
2018-05-01T06:19:36.051Z,35.70
2018-05-01T06:22:03.188Z,36.20
2018-05-01T06:24:30.295Z,37.10
2018-05-01T06:26:57.317Z,37.60
2018-05-01T06:29:26.037Z,39.40
2018-05-01T06:31:53.132Z,39.30
2018-05-01T06:34:20.140Z,39.50
2018-05-01T06:36:47.221Z,39.50
2018-05-01T06:39:14.200Z,39.40
2018-05-01T06:41:41.230Z,39.80
2018-05-01T06:44:08.276Z,40.20
2018-05-01T06:46:35.305Z,40.40
2018-05-01T06:49:02.354Z,39.90
2018-05-01T06:51:29.514Z,39.40
2018-05-01T06:53:56.559Z,38.90
2018-05-01T06:56:23.719Z,37.40
2018-05-01T06:58:50.791Z,36.60
2018-05-01T07:01:18.564Z,35.40
2018-05-01T07:03:46.380Z,34.80
2018-05-01T07:06:13.403Z,34.80
2018-05-01T07:08:40.414Z,34.30
2018-05-01T07:11:07.628Z,34.30
2018-05-01T07:13:35.078Z,33.80
2018-05-01T07:16:02.141Z,33.40
2018-05-01T07:18:29.440Z,32.30
2018-05-01T07:20:56.579Z,31.70
2018-05-01T07:23:24.406Z,30.50
2018-05-01T07:25:51.477Z,30.40
2018-05-01T07:28:18.799Z,29.90
2018-05-01T07:30:45.912Z,29.70
2018-05-01T07:33:13.520Z,28.90
2018-05-01T07:35:41.040Z,28.40
2018-05-01T07:38:08.073Z,28.00
2018-05-01T07:40:36.110Z,28.60
2018-05-01T07:43:03.268Z,28.60
2018-05-01T07:45:30.284Z,28.60
2018-05-01T07:47:57.327Z,28.70
2018-05-01T07:50:24.558Z,28.70
2018-05-01T07:52:52.458Z,27.40
2018-05-01T07:55:19.486Z,27.40
2018-05-01T07:57:46.564Z,27.50
2018-05-01T08:00:13.648Z,27.00
2018-05-01T08:02:41.336Z,26.70
2018-05-01T08:05:08.408Z,26.40
2018-05-01T08:07:35.428Z,25.70
2018-05-01T08:10:02.442Z,25.40
2018-05-01T08:12:30.296Z,24.90
2018-05-01T08:14:57.328Z,24.90
2018-05-01T08:17:24.834Z,24.50
2018-05-01T08:19:51.878Z,24.00
2018-05-01T08:22:19.723Z,23.40
2018-05-01T08:24:46.902Z,23.40
2018-05-01T08:27:13.951Z,23.10
2018-05-01T08:29:41.444Z,23.00
2018-05-01T08:32:08.495Z,23.00
2018-05-01T08:34:37.077Z,22.80
2018-05-01T08:37:04.134Z,23.00
2018-05-01T08:39:31.175Z,23.00
2018-05-01T08:41:58.220Z,23.30
2018-05-01T08:44:25.322Z,23.30
2018-05-01T08:46:52.392Z,23.10
2018-05-01T08:49:20.199Z,22.50
2018-05-01T08:51:47.662Z,22.50
2018-05-01T08:54:14.755Z,22.40
2018-05-01T08:56:41.841Z,22.20
2018-05-01T08:59:09.124Z,22.10
2018-05-01T09:01:36.117Z,21.90
2018-05-01T09:04:04.026Z,21.20
2018-05-01T09:06:31.322Z,21.10
2018-05-01T09:08:58.383Z,21.00
2018-05-01T09:11:26.080Z,20.80
2018-05-01T09:13:53.365Z,20.70
2018-05-01T09:16:21.199Z,20.70
2018-05-01T09:18:48.316Z,20.70
2018-05-01T09:21:16.244Z,20.40
2018-05-01T09:23:43.474Z,20.40
2018-05-01T09:26:10.631Z,20.20
2018-05-01T09:28:37.866Z,20.00
2018-05-01T09:31:05.906Z,19.90
2018-05-01T09:33:32.999Z,19.80
2018-05-01T09:36:00.033Z,19.70
2018-05-01T09:38:27.085Z,19.60
2018-05-01T09:40:54.101Z,19.40
2018-05-01T09:43:21.336Z,19.40
2018-05-01T09:45:48.376Z,19.10
2018-05-01T09:48:15.705Z,18.90
2018-05-01T09:50:42.779Z,18.80
2018-05-01T09:53:10.341Z,18.70
2018-05-01T09:55:37.920Z,18.70
2018-05-01T09:58:05.491Z,18.80
2018-05-01T10:00:33.102Z,18.80
2018-05-01T10:03:00.624Z,18.90
2018-05-01T10:05:28.145Z,19.00
2018-05-01T10:07:56.508Z,19.10
2018-05-01T10:10:24.075Z,19.10
2018-05-01T10:12:51.658Z,19.10
2018-05-01T10:15:19.209Z,19.10
2018-05-01T10:17:46.804Z,19.10
2018-05-01T10:20:14.364Z,18.90
2018-05-01T10:22:41.856Z,18.70
2018-05-01T10:25:09.364Z,18.70
2018-05-01T10:27:37.024Z,18.50
2018-05-01T10:30:05.330Z,18.20
2018-05-01T10:32:32.975Z,18.10
2018-05-01T10:35:00.611Z,18.30
2018-05-01T10:37:28.269Z,18.30
2018-05-01T10:39:55.762Z,18.30
2018-05-01T10:42:23.289Z,18.30
2018-05-01T10:44:50.929Z,18.10
2018-05-01T10:47:18.453Z,18.20
2018-05-01T10:49:46.007Z,18.40
2018-05-01T10:52:13.578Z,18.50
2018-05-01T10:54:41.315Z,18.50
2018-05-01T10:57:08.890Z,18.30
2018-05-01T10:59:36.547Z,18.40
2018-05-01T11:02:05.005Z,18.40
2018-05-01T11:04:34.559Z,18.50
2018-05-01T11:07:02.234Z,18.50
2018-05-01T11:09:29.811Z,18.50
2018-05-01T11:11:57.545Z,18.50
2018-05-01T11:14:25.300Z,18.80
2018-05-01T11:16:52.846Z,18.90
2018-05-01T11:19:21.152Z,19.20
2018-05-01T11:21:48.777Z,19.20
2018-05-01T11:24:17.091Z,19.40
2018-05-01T11:26:44.628Z,19.40
2018-05-01T11:29:12.336Z,19.50
2018-05-01T11:31:39.868Z,19.70
2018-05-01T11:34:07.504Z,19.80
2018-05-01T11:36:35.794Z,20.00
2018-05-01T11:39:03.446Z,19.90
2018-05-01T11:41:31.171Z,20.00
2018-05-01T11:43:58.799Z,20.10
2018-05-01T11:46:26.369Z,20.10
2018-05-01T11:48:53.858Z,20.20
2018-05-01T11:51:21.679Z,20.20
2018-05-01T11:53:49.539Z,20.20
2018-05-01T11:56:17.090Z,20.10
2018-05-01T11:58:44.714Z,20.10
2018-05-01T12:01:13.963Z,20.10
2018-05-01T12:03:41.491Z,20.10
2018-05-01T12:06:09.788Z,20.10
2018-05-01T12:08:38.077Z,20.20
2018-05-01T12:11:05.606Z,20.20
2018-05-01T12:13:33.915Z,20.30
2018-05-01T12:16:01.820Z,20.30
2018-05-01T12:18:29.454Z,20.40
2018-05-01T12:20:56.989Z,20.30
2018-05-01T12:23:24.530Z,20.30
2018-05-01T12:25:52.107Z,20.30
2018-05-01T12:28:19.893Z,20.40
2018-05-01T12:30:47.461Z,20.50
2018-05-01T12:33:15.010Z,20.70
2018-05-01T12:35:42.601Z,20.80
2018-05-01T12:38:10.486Z,20.90
2018-05-01T12:40:38.187Z,20.90
2018-05-01T12:43:05.697Z,20.80
2018-05-01T12:45:34.215Z,20.50
2018-05-01T12:48:01.807Z,20.30
2018-05-01T12:50:29.337Z,20.20
2018-05-01T12:52:57.648Z,20.00
2018-05-01T12:55:25.185Z,19.90
2018-05-01T12:57:54.165Z,19.80
2018-05-01T13:00:22.496Z,19.80
2018-05-01T13:02:50.178Z,19.80
2018-05-01T13:05:17.823Z,19.60
2018-05-01T13:07:46.026Z,19.40
2018-05-01T13:10:13.593Z,19.30
2018-05-01T13:12:41.924Z,19.10
2018-05-01T13:15:09.695Z,19.10
2018-05-01T13:17:37.252Z,19.10
2018-05-01T13:20:04.772Z,19.10
2018-05-01T13:22:33.083Z,19.10
2018-05-01T13:25:00.910Z,19.00
2018-05-01T13:27:28.526Z,19.10
2018-05-01T13:29:56.026Z,19.20
2018-05-01T13:32:23.607Z,19.30
2018-05-01T13:34:51.668Z,19.40
2018-05-01T13:37:20.030Z,19.20
2018-05-01T13:39:47.650Z,19.20
2018-05-01T13:42:15.794Z,19.20
2018-05-01T13:44:43.467Z,19.20
2018-05-01T13:47:11.051Z,19.10
2018-05-01T13:49:38.592Z,19.10
2018-05-01T13:52:06.164Z,19.30
2018-05-01T13:54:33.761Z,19.20
2018-05-01T13:57:02.287Z,19.20
2018-05-01T13:59:30.595Z,19.10
2018-05-01T14:01:58.196Z,19.00
2018-05-01T14:04:25.809Z,18.70
2018-05-01T14:06:53.352Z,18.60
2018-05-01T14:09:20.991Z,18.50
2018-05-01T14:11:49.283Z,18.50
2018-05-01T14:14:16.911Z,18.50
2018-05-01T14:16:44.473Z,18.50
2018-05-01T14:19:12.198Z,18.60
2018-05-01T14:21:50.566Z,18.50
2018-05-01T14:24:18.105Z,18.50
2018-05-01T14:26:45.907Z,18.40
2018-05-01T14:29:13.537Z,18.40
2018-05-01T14:31:41.709Z,18.40
2018-05-01T14:34:10.122Z,18.20
2018-05-01T14:36:37.778Z,18.20
2018-05-01T14:39:06.091Z,18.40
2018-05-01T14:41:33.891Z,18.40
2018-05-01T14:44:01.689Z,18.50
2018-05-01T14:46:29.277Z,18.60
2018-05-01T14:48:56.910Z,18.70
2018-05-01T14:51:25.223Z,18.50
2018-05-01T14:53:52.791Z,18.50
2018-05-01T14:56:20.320Z,18.40
2018-05-01T14:58:47.941Z,18.50
2018-05-01T15:01:15.487Z,18.60
2018-05-01T15:03:43.104Z,18.80
2018-05-01T15:06:10.640Z,19.20
2018-05-01T15:08:38.956Z,19.40
2018-05-01T15:11:06.481Z,19.30
2018-05-01T15:13:35.128Z,19.30
2018-05-01T15:16:03.441Z,19.20
2018-05-01T15:18:31.007Z,19.20
2018-05-01T15:20:58.553Z,19.00
2018-05-01T15:23:26.835Z,18.50
2018-05-01T15:25:55.374Z,18.60
2018-05-01T15:28:22.944Z,18.30
2018-05-01T15:30:50.634Z,18.20
2018-05-01T15:33:18.431Z,18.30
2018-05-01T15:35:49.836Z,18.50
2018-05-01T15:38:17.559Z,18.80
2018-05-01T15:40:45.126Z,19.00
2018-05-01T15:43:13.001Z,18.80
2018-05-01T15:45:41.094Z,18.90
2018-05-01T15:48:08.662Z,18.80
2018-05-01T15:50:36.203Z,18.70
2018-05-01T15:53:03.834Z,18.70
2018-05-01T15:55:31.869Z,18.80
2018-05-01T15:57:59.510Z,18.80
2018-05-01T16:00:27.238Z,18.60
2018-05-01T16:02:54.818Z,18.30
2018-05-01T16:05:22.573Z,18.10
2018-05-01T16:07:50.117Z,18.00
2018-05-01T16:10:17.691Z,17.70
2018-05-01T16:12:45.326Z,17.60
2018-05-01T16:15:13.056Z,17.50
2018-05-01T16:17:40.577Z,17.40
2018-05-01T16:20:08.441Z,17.40
2018-05-01T16:22:36.018Z,17.40
2018-05-01T16:25:03.818Z,17.20
2018-05-01T16:27:31.730Z,17.20
2018-05-01T16:29:59.327Z,17.10
2018-05-01T16:32:27.047Z,17.10
2018-05-01T16:34:54.552Z,17.00
2018-05-01T16:37:22.093Z,16.90
2018-05-01T16:39:50.047Z,16.80
2018-05-01T16:42:17.575Z,16.70
2018-05-01T16:44:45.935Z,16.50
2018-05-01T16:47:13.536Z,16.50
2018-05-01T16:49:41.118Z,16.50
2018-05-01T16:52:08.745Z,16.50
2018-05-01T16:54:37.604Z,16.40
2018-05-01T16:57:05.222Z,16.30
2018-05-01T16:59:35.234Z,16.30
2018-05-01T17:02:04.389Z,16.30
2018-05-01T17:04:33.252Z,16.20
2018-05-01T17:07:01.218Z,16.20
2018-05-01T17:09:29.048Z,16.20
2018-05-01T17:11:57.286Z,16.20
2018-05-01T17:14:24.836Z,16.20
2018-05-01T17:16:54.738Z,16.10
2018-05-01T17:19:22.680Z,16.10
2018-05-01T17:21:50.299Z,16.00
2018-05-01T17:24:18.643Z,15.90
2018-05-01T17:26:46.581Z,15.90
2018-05-01T17:29:15.360Z,15.90
2018-05-01T17:31:43.433Z,15.80
2018-05-01T17:34:11.001Z,15.70
2018-05-01T17:36:38.769Z,15.60
2018-05-01T17:39:06.805Z,15.60
2018-05-01T17:41:35.443Z,15.50
2018-05-01T17:44:03.161Z,15.40
2018-05-01T17:46:31.703Z,15.40
2018-05-01T17:48:59.273Z,15.40
2018-05-01T17:51:26.846Z,15.30
2018-05-01T17:53:55.472Z,15.30
2018-05-01T17:56:23.356Z,15.20
2018-05-01T17:58:51.133Z,15.10
2018-05-01T18:01:18.743Z,15.10
2018-05-01T18:03:46.462Z,15.00
2018-05-01T18:06:13.997Z,14.90
2018-05-01T18:08:41.997Z,14.80
2018-05-01T18:11:12.436Z,14.80
2018-05-01T18:13:41.199Z,14.70
2018-05-01T18:16:08.760Z,14.70
2018-05-01T18:18:36.454Z,14.60
2018-05-01T18:21:05.214Z,14.60
2018-05-01T18:23:32.959Z,14.50
2018-05-01T18:26:00.571Z,14.50
2018-05-01T18:28:28.863Z,14.40
2018-05-01T18:30:56.400Z,14.40
2018-05-01T18:33:23.950Z,14.30
2018-05-01T18:35:51.537Z,14.30
2018-05-01T18:38:19.959Z,14.20
2018-05-01T18:40:47.508Z,14.10
2018-05-01T18:43:15.012Z,14.00
2018-05-01T18:45:42.650Z,14.00
2018-05-01T18:48:10.302Z,13.90
2018-05-01T18:50:40.395Z,13.80
2018-05-01T18:53:05.447Z,13.80
2018-05-01T18:55:32.964Z,13.70
2018-05-01T18:58:00.543Z,13.60
2018-05-01T19:00:28.122Z,13.50
2018-05-01T19:02:56.569Z,13.40
2018-05-01T19:05:24.368Z,13.30
2018-05-01T19:07:52.231Z,13.20
2018-05-01T19:10:20.824Z,13.10
2018-05-01T19:12:48.436Z,13.00
2018-05-01T19:15:17.262Z,12.90
2018-05-01T19:17:45.053Z,12.80
2018-05-01T19:20:12.612Z,12.80
2018-05-01T19:22:41.088Z,12.60
2018-05-01T19:25:08.731Z,12.60
2018-05-01T19:27:36.328Z,12.60
2018-05-01T19:30:05.305Z,12.50
2018-05-01T19:32:33.153Z,12.50
2018-05-01T19:35:01.420Z,12.50
2018-05-01T19:37:30.066Z,12.40
2018-05-01T19:39:58.174Z,12.40
2018-05-01T19:42:26.394Z,12.40
2018-05-01T19:44:54.009Z,12.30
2018-05-01T19:47:21.861Z,12.30
2018-05-01T19:49:49.453Z,12.30
2018-05-01T19:52:17.811Z,12.30
2018-05-01T19:54:45.392Z,12.30
2018-05-01T19:57:13.546Z,12.20
2018-05-01T19:59:41.571Z,12.20
2018-05-01T20:02:10.615Z,12.10
2018-05-01T20:04:38.286Z,12.10
2018-05-01T20:07:05.924Z,12.10
2018-05-01T20:09:37.834Z,12.10
2018-05-01T20:12:06.173Z,12.00
2018-05-01T20:14:33.760Z,12.00
2018-05-01T20:17:01.295Z,12.00
2018-05-01T20:19:29.461Z,12.00
2018-05-01T20:21:57.650Z,11.90
2018-05-01T20:24:25.265Z,11.90
2018-05-01T20:26:53.805Z,11.80
2018-05-01T20:29:21.383Z,11.80
2018-05-01T20:31:49.795Z,11.70
2018-05-01T20:34:17.431Z,11.70
2018-05-01T20:36:45.686Z,11.70
2018-05-01T20:39:13.337Z,11.60
2018-05-01T20:41:40.949Z,11.60
2018-05-01T20:44:09.299Z,11.40
2018-05-01T20:46:38.179Z,11.40
2018-05-01T20:49:06.074Z,11.40
2018-05-01T20:51:33.822Z,11.30
2018-05-01T20:54:01.398Z,11.30
2018-05-01T20:56:29.853Z,11.30
2018-05-01T20:58:57.487Z,11.30
2018-05-01T21:01:24.967Z,11.30
2018-05-01T21:03:52.544Z,11.30
2018-05-01T21:06:20.126Z,11.30
2018-05-01T21:08:48.445Z,11.20
2018-05-01T21:11:16.118Z,11.20
2018-05-01T21:13:43.729Z,11.20
2018-05-01T21:16:11.331Z,11.20
2018-05-01T21:18:38.877Z,11.10
2018-05-01T21:21:06.656Z,11.00
2018-05-01T21:23:34.560Z,11.00
2018-05-01T21:28:36.629Z,11.00
2018-05-01T21:31:04.295Z,11.00
2018-05-01T21:33:31.929Z,10.90
2018-05-01T21:35:59.468Z,10.90
2018-05-01T21:38:27.155Z,10.90
2018-05-01T21:40:54.703Z,10.90
2018-05-01T21:43:22.302Z,10.90
2018-05-01T21:45:50.355Z,10.90
2018-05-01T21:48:17.856Z,10.90
2018-05-01T21:50:45.535Z,10.90
2018-05-01T21:53:13.842Z,10.80
2018-05-01T21:55:41.602Z,10.80
2018-05-01T21:58:09.117Z,10.80
2018-05-01T22:00:36.639Z,10.70
2018-05-01T22:03:04.701Z,10.70
2018-05-01T22:05:32.215Z,10.70
2018-05-01T22:07:59.768Z,10.60
2018-05-01T22:10:27.472Z,10.60
2018-05-01T22:12:55.007Z,10.50
2018-05-01T22:15:22.517Z,10.50
2018-05-01T22:17:50.043Z,10.50
2018-05-01T22:20:17.585Z,10.40
2018-05-01T22:22:45.115Z,10.40
2018-05-01T22:25:12.702Z,10.30
2018-05-01T22:27:41.008Z,10.30
2018-05-01T22:30:08.516Z,10.30
2018-05-01T22:32:36.372Z,10.30
2018-05-01T22:35:03.928Z,10.30
2018-05-01T22:37:31.452Z,10.30
2018-05-01T22:39:59.027Z,10.30
2018-05-01T22:42:26.576Z,10.20
2018-05-01T22:44:54.071Z,10.20
2018-05-01T22:47:22.283Z,10.30
2018-05-01T22:49:50.577Z,10.10
2018-05-01T22:52:18.711Z,10.10
2018-05-01T22:54:46.248Z,10.10
2018-05-01T22:57:13.740Z,10.10
2018-05-01T22:59:41.270Z,10.00
2018-05-01T23:02:09.172Z,10.00
2018-05-01T23:04:36.827Z,10.00
2018-05-01T23:07:04.400Z,9.90
2018-05-01T23:09:31.916Z,9.90
2018-05-01T23:11:59.610Z,9.90
2018-05-01T23:14:28.244Z,9.90
2018-05-01T23:16:56.012Z,9.80
2018-05-01T23:19:23.514Z,9.80
2018-05-01T23:21:51.318Z,9.80
2018-05-01T23:24:19.188Z,9.70
2018-05-01T23:26:46.739Z,9.70
2018-05-01T23:29:15.040Z,9.60
2018-05-01T23:31:42.547Z,9.60
2018-05-01T23:34:10.092Z,9.60
2018-05-01T23:36:37.652Z,9.60
2018-05-01T23:39:05.158Z,9.60
2018-05-01T23:41:32.648Z,9.50
2018-05-01T23:44:00.138Z,9.50
2018-05-01T23:46:27.720Z,9.50
2018-05-01T23:48:56.057Z,9.40
2018-05-01T23:51:23.646Z,9.30
2018-05-01T23:53:51.492Z,9.30
2018-05-01T23:56:18.995Z,9.30
2018-05-01T23:58:47.320Z,9.20
